Time;durP1;ratioP1;P1;durP2;ratioP2;P2;SDS_P1;SDS_P2;PMS_P1;PMS_P2;Temp;Humidity;BMP_temperature;BMP_pressure;BME280_temperature;BME280_humidity;BME280_pressure;Samples;Min_cycle;Max_cycle;Signal;HPM_P1;HPM_P2
2022/01/15 00:00:34;;;;;;;;;;;;;;;21.94;19.73;97763.16;5054405;28;1992;-72
2022/01/15 00:02:59;;;;;;;;;;;;;;;22.08;19.68;97768.38;5014784;28;939;-72
2022/01/15 00:05:25;;;;;;;;;;;;;;;22.21;19.51;97780.53;4998460;28;872;-72
2022/01/15 00:07:50;;;;;;;;;;;;;;;22.06;19.49;97791.50;5014635;28;912;-71
2022/01/15 00:10:16;;;;;;;;;;;;;;;22.06;19.71;97790.69;5014429;28;1290;-72
2022/01/15 00:12:42;;;;;;;;;;;;;;;21.99;19.61;97802.28;5014552;28;888;-72
2022/01/15 00:15:11;;;;;;;;;;;;;;;22.18;19.41;97789.94;4997962;28;917;-72
2022/01/15 00:17:49;;;;;;;;;;;;;;;22.07;19.63;97797.94;5014573;28;1019;-72
2022/01/15 00:20:16;;;;;;;;;;;;;;;22.42;19.14;97783.91;5014342;28;1980;-72
2022/01/15 00:22:42;;;;;;;;;;;;;;;22.25;19.18;97775.53;5014413;28;796;-72
2022/01/15 00:25:08;;;;;;;;;;;;;;;22.39;19.42;97787.66;5007310;28;871;-72
2022/01/15 00:27:33;;;;;;;;;;;;;;;22.09;19.45;97795.47;5014769;28;945;-72
2022/01/15 00:29:58;;;;;;;;;;;;;;;22.39;19.02;97790.50;4994366;28;1107;-72
2022/01/15 00:32:26;;;;;;;;;;;;;;;22.31;19.47;97796.38;4994581;28;852;-72
2022/01/15 00:34:51;;;;;;;;;;;;;;;22.41;19.40;97793.66;5047287;28;881;-72
2022/01/15 00:37:17;;;;;;;;;;;;;;;22.24;19.43;97787.34;5054299;28;767;-72
2022/01/15 00:39:42;;;;;;;;;;;;;;;22.32;19.33;97795.13;5054214;28;1906;-72
2022/01/15 00:42:09;;;;;;;;;;;;;;;22.22;19.63;97795.47;5008626;28;1318142;-72
2022/01/15 00:44:36;;;;;;;;;;;;;;;22.18;19.68;97787.13;5054562;28;845;-72
2022/01/15 00:47:02;;;;;;;;;;;;;;;22.10;19.68;97788.56;5054622;28;731;-72
2022/01/15 00:49:27;;;;;;;;;;;;;;;22.21;19.49;97786.19;5054641;28;855;-72
2022/01/15 00:51:52;;;;;;;;;;;;;;;22.24;19.59;97796.63;5054676;28;944;-72
2022/01/15 00:54:18;;;;;;;;;;;;;;;22.29;19.36;97793.22;5054578;28;766;-72
2022/01/15 00:56:43;;;;;;;;;;;;;;;22.22;19.51;97793.44;5070898;28;919;-72
2022/01/15 00:59:09;;;;;;;;;;;;;;;22.07;19.79;97806.44;5054225;28;1985;-72
2022/01/15 01:01:34;;;;;;;;;;;;;;;22.01;19.49;97799.75;5056179;28;836;-72
2022/01/15 01:04:00;;;;;;;;;;;;;;;22.22;19.64;97793.44;5056675;28;899;-72
2022/01/15 01:06:25;;;;;;;;;;;;;;;22.28;19.42;97783.13;5056608;28;857;-72
2022/01/15 01:08:51;;;;;;;;;;;;;;;22.04;19.86;97794.00;5054438;28;867;-72
2022/01/15 01:11:23;;;;;;;;;;;;;;;22.01;19.51;97791.25;5055654;28;759;-72
2022/01/15 01:24:40;;;;;;;;;;;;;;;22.26;19.48;97782.00;5073526;28;983;-72
2022/01/15 01:27:16;;;;;;;;;;;;;;;22.04;19.77;97790.38;5074149;28;715;-72
2022/01/15 01:32:26;;;;;;;;;;;;;;;22.16;19.52;97781.09;5053454;28;1227;-72
2022/01/15 01:34:51;;;;;;;;;;;;;;;22.02;19.70;97795.69;5011563;28;1021;-72
2022/01/15 01:37:25;;;;;;;;;;;;;;;22.23;19.26;97800.72;5013732;28;1025;-72
2022/01/15 01:39:56;;;;;;;;;;;;;;;22.17;19.19;97811.00;5013570;28;1898;-72
2022/01/15 01:45:00;;;;;;;;;;;;;;;22.30;19.42;97822.38;5013684;28;776;-71
2022/01/15 01:47:37;;;;;;;;;;;;;;;22.10;19.53;97825.38;5013962;28;914;-72
2022/01/15 01:50:03;;;;;;;;;;;;;;;22.05;19.61;97835.25;4998681;28;934;-72
2022/01/15 01:52:28;;;;;;;;;;;;;;;22.05;19.82;97845.78;4993811;28;1149;-73
2022/01/15 01:54:54;;;;;;;;;;;;;;;22.24;19.48;97852.53;4987857;28;886;-72
2022/01/15 01:57:19;;;;;;;;;;;;;;;22.28;19.29;97854.00;4974423;28;1003;-72
2022/01/15 01:59:45;;;;;;;;;;;;;;;21.98;19.33;97851.69;4974411;28;1902;-72
2022/01/15 02:02:10;;;;;;;;;;;;;;;21.83;19.53;97860.59;5015225;28;960;-72
2022/01/15 02:04:36;;;;;;;;;;;;;;;22.26;19.36;97850.81;5033151;28;937;-72
2022/01/15 02:07:01;;;;;;;;;;;;;;;22.39;19.02;97864.22;5033112;28;877;-72
2022/01/15 02:09:27;;;;;;;;;;;;;;;22.31;19.35;97870.09;5039032;28;897;-72
2022/01/15 02:11:52;;;;;;;;;;;;;;;22.27;19.16;97865.78;5072828;28;1003;-72
2022/01/15 02:14:24;;;;;;;;;;;;;;;22.19;19.37;97884.25;5073114;28;778;-72
2022/01/15 02:16:50;;;;;;;;;;;;;;;22.25;19.43;97883.25;5072988;28;898;-72
2022/01/15 02:19:15;;;;;;;;;;;;;;;22.29;19.41;97888.81;5072720;28;1898;-72
2022/01/15 02:24:12;;;;;;;;;;;;;;;22.25;19.32;97888.91;5052560;28;907;-73
2022/01/15 02:26:39;;;;;;;;;;;;;;;22.23;19.46;97897.06;5052665;28;940;-73
2022/01/15 02:29:05;;;;;;;;;;;;;;;22.36;19.21;97889.38;5052945;28;757;-73
2022/01/15 02:31:30;;;;;;;;;;;;;;;22.39;19.21;97892.56;5036025;28;929;-72
2022/01/15 02:33:56;;;;;;;;;;;;;;;22.29;19.30;97889.59;5036485;28;911;-71
2022/01/15 02:36:23;;;;;;;;;;;;;;;22.39;18.94;97898.22;5033386;28;850;-72
2022/01/15 02:38:48;;;;;;;;;;;;;;;22.48;19.16;97890.59;5032906;28;774;-72
2022/01/15 02:41:14;;;;;;;;;;;;;;;22.49;19.25;97892.22;5052535;28;1910;-72
2022/01/15 02:43:40;;;;;;;;;;;;;;;22.50;19.09;97902.31;5052395;28;910;-72
2022/01/15 02:46:20;;;;;;;;;;;;;;;22.43;19.01;97898.88;5052989;28;776;-72
2022/01/15 02:48:46;;;;;;;;;;;;;;;22.46;19.08;97892.31;5052297;28;820;-72
2022/01/15 02:51:12;;;;;;;;;;;;;;;22.38;19.33;97902.28;5053017;28;735;-72
2022/01/15 02:53:37;;;;;;;;;;;;;;;22.38;18.94;97902.28;5052867;28;777;-72
2022/01/15 02:56:03;;;;;;;;;;;;;;;22.34;19.27;97902.41;5089107;28;967;-73
2022/01/15 02:58:28;;;;;;;;;;;;;;;22.33;19.07;97906.50;5092509;28;923;-72
2022/01/15 03:00:54;;;;;;;;;;;;;;;22.18;19.53;97911.81;5092712;28;1917;-72
2022/01/15 03:03:19;;;;;;;;;;;;;;;22.38;19.33;97910.78;5059025;28;960;-72
2022/01/15 03:05:45;;;;;;;;;;;;;;;22.52;18.77;97913.97;5092910;28;960;-73
2022/01/15 03:08:10;;;;;;;;;;;;;;;22.32;18.90;97917.03;5092855;28;830;-72
2022/01/15 03:10:36;;;;;;;;;;;;;;;22.36;19.21;97922.59;5092658;28;755;-73
2022/01/15 03:13:09;;;;;;;;;;;;;;;22.40;19.10;97931.78;5092574;28;856;-72
2022/01/15 03:15:34;;;;;;;;;;;;;;;22.50;19.00;97932.69;5092730;28;858;-72
2022/01/15 03:17:59;;;;;;;;;;;;;;;22.40;19.15;97928.16;5083832;28;787;-72
2022/01/15 03:20:25;;;;;;;;;;;;;;;22.43;19.01;97932.91;5072425;28;1992;-72
2022/01/15 03:22:53;;;;;;;;;;;;;;;22.57;19.01;97935.31;5072534;28;785;-72
2022/01/15 03:25:18;;;;;;;;;;;;;;;22.30;19.38;97930.06;5072546;28;925;-72
2022/01/15 03:27:44;;;;;;;;;;;;;;;22.21;19.52;97935.59;5031903;28;892;-73
2022/01/15 03:30:10;;;;;;;;;;;;;;;22.46;18.89;97949.03;5032429;28;969;-73
2022/01/15 03:32:39;;;;;;;;;;;;;;;22.50;18.85;97938.38;5032171;28;906;-73
2022/01/15 03:35:04;;;;;;;;;;;;;;;22.33;19.24;97941.31;5002826;28;883;-72
2022/01/15 03:37:30;;;;;;;;;;;;;;;22.33;19.33;97937.69;5035747;28;1008;-72
2022/01/15 03:39:58;;;;;;;;;;;;;;;22.23;19.04;97931.09;5035585;28;1981;-72
2022/01/15 03:42:24;;;;;;;;;;;;;;;22.41;18.81;97941.09;5035829;28;1246;-71
2022/01/15 03:44:50;;;;;;;;;;;;;;;22.42;19.12;97934.16;5035677;28;814;-72
2022/01/15 03:47:15;;;;;;;;;;;;;;;22.49;19.00;97931.13;5019282;28;947;-72
2022/01/15 03:49:41;;;;;;;;;;;;;;;22.48;19.08;97929.50;5002454;28;1003;-72
2022/01/15 03:52:06;;;;;;;;;;;;;;;22.50;18.94;97927.81;5035543;28;946;-72
2022/01/15 03:54:32;;;;;;;;;;;;;;;22.47;18.80;97939.25;5035447;28;911;-72
2022/01/15 03:56:57;;;;;;;;;;;;;;;22.44;18.96;97960.03;5035670;28;822;-72
2022/01/15 03:59:26;;;;;;;;;;;;;;;22.53;19.10;97977.94;5053237;28;1906;-72
2022/01/15 04:01:51;;;;;;;;;;;;;;;22.51;18.96;97968.31;5058418;28;847;-72
2022/01/15 04:04:17;;;;;;;;;;;;;;;22.47;19.16;97974.06;5057902;28;765;-72
2022/01/15 04:06:42;;;;;;;;;;;;;;;22.38;19.09;97982.44;5057890;28;802;-72
2022/01/15 04:09:08;;;;;;;;;;;;;;;22.61;18.94;97972.84;5075300;28;1029;-72
2022/01/15 04:11:34;;;;;;;;;;;;;;;22.53;18.76;97965.81;5075042;28;887;-72
2022/01/15 04:14:00;;;;;;;;;;;;;;;22.50;18.71;97961.06;5074920;28;881;-72
2022/01/15 04:16:25;;;;;;;;;;;;;;;22.55;18.70;97957.66;5075034;28;746;-72
2022/01/15 04:18:51;;;;;;;;;;;;;;;22.64;18.73;97977.63;5035382;28;1009;-73
2022/01/15 04:21:16;;;;;;;;;;;;;;;22.51;18.81;97986.13;5034849;28;1983;-73
2022/01/15 04:23:42;;;;;;;;;;;;;;;22.59;18.83;97989.53;5034784;28;1112;-72
2022/01/15 04:26:07;;;;;;;;;;;;;;;22.56;18.77;97996.09;5035032;28;750;-72
2022/01/15 04:28:34;;;;;;;;;;;;;;;22.51;19.04;98002.34;5034641;28;802;-72
2022/01/15 04:31:05;;;;;;;;;;;;;;;22.38;19.09;98002.28;5035017;28;806;-72
2022/01/15 04:33:33;;;;;;;;;;;;;;;22.17;19.50;98003.72;5035016;28;823;-72
2022/01/15 04:36:01;;;;;;;;;;;;;;;22.60;18.70;98010.97;5034922;28;743;-72
2022/01/15 04:38:27;;;;;;;;;;;;;;;22.27;19.42;98005.44;5034613;28;761;-72
2022/01/15 04:40:53;;;;;;;;;;;;;;;22.47;19.03;97995.97;5001771;28;1898;-72
2022/01/15 04:43:18;;;;;;;;;;;;;;;22.43;19.14;98000.94;5034673;28;922;-72
2022/01/15 04:45:44;;;;;;;;;;;;;;;22.43;18.79;98006.63;5033498;28;901;-72
2022/01/15 04:48:09;;;;;;;;;;;;;;;22.56;18.96;98016.75;5034809;28;719;-72
2022/01/15 04:50:35;;;;;;;;;;;;;;;22.50;18.91;98017.75;5052784;28;922;-72
2022/01/15 04:53:00;;;;;;;;;;;;;;;22.50;18.90;98021.38;5057025;28;794;-72
2022/01/15 04:55:25;;;;;;;;;;;;;;;22.69;18.69;98013.94;5057160;28;746;-72
2022/01/15 04:57:51;;;;;;;;;;;;;;;22.56;18.99;98022.41;5056813;28;889;-72
2022/01/15 05:00:17;;;;;;;;;;;;;;;22.09;19.55;98013.66;5056265;28;1918;-72
2022/01/15 05:02:42;;;;;;;;;;;;;;;22.27;19.28;98022.44;5055278;28;954;-72
2022/01/15 05:05:08;;;;;;;;;;;;;;;22.02;19.45;98028.00;5056611;28;997;-72
2022/01/15 05:07:33;;;;;;;;;;;;;;;22.34;19.30;98022.25;5056622;28;912;-72
2022/01/15 05:09:59;;;;;;;;;;;;;;;22.53;19.08;98016.84;5056618;28;973;-73
2022/01/15 05:12:42;;;;;;;;;;;;;;;22.46;19.02;98028.41;5056460;28;895;-72
2022/01/15 05:15:07;;;;;;;;;;;;;;;22.50;18.97;98029.09;5056830;28;893;-72
2022/01/15 05:17:33;;;;;;;;;;;;;;;22.49;19.17;98028.31;5070962;28;966;-72
2022/01/15 05:20:01;;;;;;;;;;;;;;;22.42;19.25;98027.72;5056615;28;1981;-72
2022/01/15 05:22:26;;;;;;;;;;;;;;;22.45;19.27;98035.34;5056292;28;943;-73
2022/01/15 05:24:54;;;;;;;;;;;;;;;22.49;19.32;98033.97;5056376;28;870;-72
2022/01/15 05:27:20;;;;;;;;;;;;;;;22.51;19.07;98042.03;5056350;28;982;-72
2022/01/15 05:29:47;;;;;;;;;;;;;;;22.17;19.54;98037.72;5056863;28;854;-72
2022/01/15 05:32:13;;;;;;;;;;;;;;;22.60;19.15;98047.84;5056527;28;940;-73
2022/01/15 05:34:38;;;;;;;;;;;;;;;22.46;19.19;98049.06;5056446;28;967;-72
2022/01/15 05:37:04;;;;;;;;;;;;;;;22.32;19.29;98047.41;5073618;28;1028;-72
2022/01/15 05:39:29;;;;;;;;;;;;;;;22.43;19.14;98040.63;5073715;28;1968;-72
2022/01/15 05:41:57;;;;;;;;;;;;;;;22.61;18.89;98055.09;5073456;28;1954;-72
2022/01/15 05:44:23;;;;;;;;;;;;;;;22.57;19.17;98055.19;5074514;28;1142;-72
2022/01/15 05:46:48;;;;;;;;;;;;;;;22.54;19.13;98058.16;5082901;28;1256;-72
2022/01/15 05:49:14;;;;;;;;;;;;;;;22.53;18.89;98051.66;5084044;28;1201;-72
2022/01/15 05:51:39;;;;;;;;;;;;;;;22.50;19.03;98048.94;5082101;28;1594;-72
2022/01/15 05:54:10;;;;;;;;;;;;;;;22.43;19.12;98051.97;5083299;28;1271;-73
2022/01/15 05:56:35;;;;;;;;;;;;;;;22.34;19.38;98047.78;5083900;28;1327;-72
2022/01/15 05:59:01;;;;;;;;;;;;;;;22.52;18.93;98049.28;5082208;28;1256;-73
2022/01/15 06:01:26;;;;;;;;;;;;;;;22.57;18.77;98051.56;5082187;28;1976;-73
2022/01/15 06:03:54;;;;;;;;;;;;;;;22.61;19.09;98058.72;5081932;28;1374;-73
2022/01/15 06:06:21;;;;;;;;;;;;;;;22.40;18.96;98064.25;5083838;28;1241;-73
2022/01/15 06:08:47;;;;;;;;;;;;;;;22.21;19.21;98069.59;5050777;28;1320;-73
2022/01/15 06:11:17;;;;;;;;;;;;;;;21.97;19.73;98065.41;5052532;28;1429;-73
2022/01/15 06:13:45;;;;;;;;;;;;;;;21.75;19.77;98074.44;5050074;28;1233;-73
2022/01/15 06:16:11;;;;;;;;;;;;;;;22.06;19.25;98074.03;5052953;28;1272;-74
2022/01/15 06:18:36;;;;;;;;;;;;;;;22.53;18.78;98096.25;5052486;28;1204;-74
2022/01/15 06:21:02;;;;;;;;;;;;;;;22.54;19.10;98081.63;5052462;28;1995;-73
2022/01/15 06:23:27;;;;;;;;;;;;;;;22.17;19.44;98085.09;5052249;28;1315;-73
2022/01/15 06:25:53;;;;;;;;;;;;;;;22.48;19.11;98088.28;5035848;28;1305;-73
2022/01/15 06:28:18;;;;;;;;;;;;;;;22.45;19.13;98077.88;5052449;28;1248;-73
2022/01/15 06:30:44;;;;;;;;;;;;;;;22.44;18.96;98081.94;5052424;28;1252;-73
2022/01/15 06:33:09;;;;;;;;;;;;;;;22.52;18.82;98075.59;5052298;28;1649;-73
2022/01/15 06:35:34;;;;;;;;;;;;;;;22.49;19.01;98087.84;5052254;28;1221;-73
2022/01/15 06:38:00;;;;;;;;;;;;;;;22.37;18.96;98091.44;5052464;28;1354;-73
2022/01/15 06:40:26;;;;;;;;;;;;;;;22.75;18.85;98085.09;5069215;28;1996;-73
2022/01/15 06:42:52;;;;;;;;;;;;;;;23.04;18.29;98082.19;5074549;28;1244;-73
2022/01/15 06:45:17;;;;;;;;;;;;;;;21.79;19.80;98078.00;5075480;28;1437;-73
2022/01/15 06:47:43;;;;;;;;;;;;;;;21.70;19.97;98072.16;5075460;28;914;-73
2022/01/15 06:50:08;;;;;;;;;;;;;;;22.05;19.29;98072.44;5074958;28;1070;-73
2022/01/15 06:52:35;;;;;;;;;;;;;;;22.66;18.94;98088.56;5074722;28;1212;-73
2022/01/15 06:55:01;;;;;;;;;;;;;;;22.96;18.46;98083.66;5074780;28;1284;-74
2022/01/15 06:57:26;;;;;;;;;;;;;;;22.44;18.92;98082.75;5074882;28;1303;-73
2022/01/15 06:59:52;;;;;;;;;;;;;;;22.31;19.14;98090.38;5074844;28;1988;-73
2022/01/15 07:02:17;;;;;;;;;;;;;;;22.35;19.13;98085.44;5074856;28;1359;-73
2022/01/15 07:04:43;;;;;;;;;;;;;;;22.43;18.69;98086.78;5072116;28;1315;-73
2022/01/15 07:07:08;;;;;;;;;;;;;;;22.27;19.08;98087.66;5074791;28;1304;-73
2022/01/15 07:09:35;;;;;;;;;;;;;;;22.36;19.03;98090.63;5076666;28;1272;-73
2022/01/15 07:12:01;;;;;;;;;;;;;;;22.23;19.05;98095.47;5078603;28;1392;-73
2022/01/15 07:14:26;;;;;;;;;;;;;;;22.22;19.30;98091.03;5078665;28;1307;-73
2022/01/15 07:16:52;;;;;;;;;;;;;;;22.09;19.16;98082.44;5078567;28;1353;-73
2022/01/15 07:19:17;;;;;;;;;;;;;;;21.97;19.46;98088.06;5078713;28;1918;-73
2022/01/15 07:21:43;;;;;;;;;;;;;;;22.08;19.17;98094.25;5078440;28;1442;-73
2022/01/15 07:24:08;;;;;;;;;;;;;;;22.13;19.20;98096.56;5078773;28;1288;-73
2022/01/15 07:26:34;;;;;;;;;;;;;;;22.29;18.78;98092.88;5078253;28;1311;-73
2022/01/15 07:28:59;;;;;;;;;;;;;;;22.11;19.27;98093.38;5078316;28;1279;-73
2022/01/15 07:31:25;;;;;;;;;;;;;;;22.20;19.13;98104.84;5078123;28;1291;-73
2022/01/15 07:33:50;;;;;;;;;;;;;;;22.00;19.30;98098.50;5078273;28;1346;-73
2022/01/15 07:36:16;;;;;;;;;;;;;;;22.14;18.99;98109.50;5078115;28;1293;-73
2022/01/15 07:38:41;;;;;;;;;;;;;;;22.34;18.70;98100.84;5078261;28;1200;-73
2022/01/15 07:41:11;;;;;;;;;;;;;;;22.24;18.89;98102.72;5075303;28;1980;-73
2022/01/15 07:43:37;;;;;;;;;;;;;;;22.35;19.10;98106.06;5072995;28;1258;-74
2022/01/15 07:46:02;;;;;;;;;;;;;;;22.45;18.76;98103.38;5075618;28;1197;-73
2022/01/15 07:48:28;;;;;;;;;;;;;;;22.47;18.66;98103.72;5063796;28;1531;-74
2022/01/15 07:50:53;;;;;;;;;;;;;;;22.55;18.56;98105.13;5066529;28;1205;-73
2022/01/15 07:53:19;;;;;;;;;;;;;;;22.67;18.56;98112.84;5065138;28;1267;-73
2022/01/15 07:55:44;;;;;;;;;;;;;;;22.63;18.43;98110.09;5064385;28;1232;-73
2022/01/15 07:58:10;;;;;;;;;;;;;;;22.47;18.39;98109.38;5063837;28;1237;-73
2022/01/15 08:00:35;;;;;;;;;;;;;;;22.54;18.69;98109.19;5055376;28;2007;-73
2022/01/15 08:03:01;;;;;;;;;;;;;;;22.54;18.64;98106.38;5055320;28;1002;-73
2022/01/15 08:05:26;;;;;;;;;;;;;;;22.51;18.67;98115.75;5055392;28;1082;-73
2022/01/15 08:07:52;;;;;;;;;;;;;;;22.52;18.39;98120.19;5055177;28;993;-73
2022/01/15 08:10:17;;;;;;;;;;;;;;;22.34;18.78;98117.84;5055598;28;1047;-73
2022/01/15 08:12:43;;;;;;;;;;;;;;;22.21;18.71;98122.66;5070359;28;1053;-73
2022/01/15 08:15:09;;;;;;;;;;;;;;;22.31;18.83;98122.38;5075093;28;967;-73
2022/01/15 08:17:34;;;;;;;;;;;;;;;22.37;18.58;98116.94;5075237;28;942;-73
2022/01/15 08:20:00;;;;;;;;;;;;;;;22.34;18.91;98115.81;5062144;28;1987;-73
2022/01/15 08:22:25;;;;;;;;;;;;;;;22.39;18.75;98127.84;5057705;28;968;-73
2022/01/15 08:24:51;;;;;;;;;;;;;;;22.19;19.19;98134.44;5057472;28;913;-73
2022/01/15 08:27:16;;;;;;;;;;;;;;;22.50;18.63;98126.31;5057426;28;900;-73
2022/01/15 08:29:42;;;;;;;;;;;;;;;22.43;18.71;98137.03;5088822;28;953;-73
2022/01/15 08:32:07;;;;;;;;;;;;;;;22.71;18.36;98135.44;5057379;28;907;-73
2022/01/15 08:34:33;;;;;;;;;;;;;;;22.06;19.01;98139.22;5089941;28;1056;-74
2022/01/15 08:36:58;;;;;;;;;;;;;;;22.47;18.74;98143.41;5057279;28;1023;-73
2022/01/15 08:39:24;;;;;;;;;;;;;;;22.34;18.58;98140.53;5057201;28;1907;-73
2022/01/15 08:41:49;;;;;;;;;;;;;;;22.59;18.37;98139.84;5057453;28;1170;-73
2022/01/15 08:44:15;;;;;;;;;;;;;;;22.50;18.55;98149.00;5057118;28;901;-73
2022/01/15 08:46:40;;;;;;;;;;;;;;;22.59;18.16;98162.53;5057514;28;925;-74
2022/01/15 08:49:06;;;;;;;;;;;;;;;22.36;18.67;98150.16;5056637;28;975;-73
2022/01/15 08:51:31;;;;;;;;;;;;;;;22.54;18.51;98160.25;5056861;28;1030;-74
2022/01/15 08:53:57;;;;;;;;;;;;;;;22.42;18.46;98163.81;5057014;28;953;-73
2022/01/15 08:56:22;;;;;;;;;;;;;;;22.43;18.43;98154.84;5056966;28;920;-73
2022/01/15 08:58:48;;;;;;;;;;;;;;;21.96;18.90;98160.13;5057215;28;922;-73
2022/01/15 09:01:13;;;;;;;;;;;;;;;22.07;18.89;98160.63;5056906;28;1906;-72
2022/01/15 09:03:42;;;;;;;;;;;;;;;22.24;18.74;98152.97;5056489;28;945;-73
2022/01/15 09:06:07;;;;;;;;;;;;;;;22.20;18.73;98150.22;5057135;28;902;-73
2022/01/15 09:08:33;;;;;;;;;;;;;;;22.19;18.60;98140.13;5088251;28;1020;-73
2022/01/15 09:10:58;;;;;;;;;;;;;;;22.56;18.19;98140.72;5056489;28;940;-73
2022/01/15 09:13:23;;;;;;;;;;;;;;;22.54;18.43;98141.19;5056846;28;1029;-73
2022/01/15 09:15:52;;;;;;;;;;;;;;;22.32;18.29;98137.34;5056461;28;943;-74
2022/01/15 09:18:18;;;;;;;;;;;;;;;22.28;18.76;98142.31;5056701;28;1087;-73
2022/01/15 09:20:43;;;;;;;;;;;;;;;22.36;18.44;98133.16;5056722;28;1918;-73
2022/01/15 09:23:09;;;;;;;;;;;;;;;22.56;18.43;98135.06;5087684;28;986;-73
2022/01/15 09:25:34;;;;;;;;;;;;;;;22.26;18.64;98133.44;5056580;28;934;-73
2022/01/15 09:30:43;;;;;;;;;;;;;;;22.50;18.58;98128.34;5056587;28;1044;-73
2022/01/15 09:33:09;;;;;;;;;;;;;;;22.61;18.26;98140.19;5055299;28;957;-73
2022/01/15 09:35:34;;;;;;;;;;;;;;;22.55;18.42;98139.13;5070936;28;1114;-73
2022/01/15 09:38:00;;;;;;;;;;;;;;;22.67;18.20;98129.88;5055913;28;972;-73
2022/01/15 09:40:26;;;;;;;;;;;;;;;22.91;17.66;98132.47;5070437;28;1988;-73
2022/01/15 09:42:52;;;;;;;;;;;;;;;22.64;18.14;98136.47;5055808;28;886;-73
2022/01/15 09:45:18;;;;;;;;;;;;;;;21.79;19.15;98145.97;5056239;28;978;-74
2022/01/15 09:47:43;;;;;;;;;;;;;;;21.94;18.85;98151.28;5088153;28;708;-73
2022/01/15 09:50:10;;;;;;;;;;;;;;;21.81;19.12;98142.69;5055999;28;913;-73
2022/01/15 09:52:35;;;;;;;;;;;;;;;22.15;18.69;98145.09;5055901;28;1213;-73
2022/01/15 09:55:01;;;;;;;;;;;;;;;22.25;18.65;98132.66;5093327;28;1039;-72
2022/01/15 09:57:27;;;;;;;;;;;;;;;22.19;18.82;98139.31;5093567;28;1124;-73
2022/01/15 09:59:53;;;;;;;;;;;;;;;21.84;19.06;98142.59;5093512;28;1988;-72
2022/01/15 10:02:18;;;;;;;;;;;;;;;22.19;18.73;98145.00;5093772;28;936;-73
2022/01/15 10:04:43;;;;;;;;;;;;;;;22.58;18.48;98143.91;5076651;28;894;-73
2022/01/15 10:07:10;;;;;;;;;;;;;;;22.61;18.41;98126.00;5076882;28;1002;-73
2022/01/15 10:09:36;;;;;;;;;;;;;;;22.54;18.33;98137.56;5093278;28;994;-73
2022/01/15 10:12:02;;;;;;;;;;;;;;;21.81;19.02;98134.19;5093203;28;1176;-73
2022/01/15 10:14:28;;;;;;;;;;;;;;;22.65;18.05;98137.25;5102910;28;2568;-72
2022/01/15 10:16:55;;;;;;;;;;;;;;;22.33;18.37;98138.94;5113532;28;1036;-72
2022/01/15 10:19:33;;;;;;;;;;;;;;;22.40;18.46;98137.94;5113574;28;973;-72
2022/01/15 10:22:09;;;;;;;;;;;;;;;22.72;18.00;98137.03;5079696;28;980;-73
2022/01/15 10:24:34;;;;;;;;;;;;;;;22.69;18.18;98132.25;5113719;28;1031;-72
2022/01/15 10:27:19;;;;;;;;;;;;;;;22.61;18.22;98131.66;5078882;28;1025;-72
2022/01/15 10:29:55;;;;;;;;;;;;;;;22.56;18.25;98135.84;5075428;28;970;-73
2022/01/15 10:32:20;;;;;;;;;;;;;;;22.42;18.47;98130.56;5075137;28;887;-73
2022/01/15 10:34:46;;;;;;;;;;;;;;;22.67;18.22;98121.34;5075276;28;878;-72
2022/01/15 10:37:12;;;;;;;;;;;;;;;22.65;18.10;98112.50;5075032;28;931;-72
2022/01/15 10:39:38;;;;;;;;;;;;;;;22.67;18.00;98089.38;5075639;28;1973;-73
2022/01/15 10:42:14;;;;;;;;;;;;;;;22.62;18.04;98104.91;5089734;28;1099;-73
2022/01/15 10:44:41;;;;;;;;;;;;;;;23.00;17.57;98102.19;5079391;28;881;-73
2022/01/15 10:47:10;;;;;;;;;;;;;;;22.65;17.68;98089.03;5079380;28;1021;-73
2022/01/15 10:49:37;;;;;;;;;;;;;;;21.77;18.95;98094.66;5079378;28;872;-73
2022/01/15 10:52:13;;;;;;;;;;;;;;;22.09;18.68;98098.66;5079346;28;975;-73
2022/01/15 10:55:00;;;;;;;;;;;;;;;22.28;18.50;98097.75;5079530;28;951;-73
2022/01/15 10:57:45;;;;;;;;;;;;;;;22.05;18.64;98093.09;5078991;28;1707;-73
2022/01/15 11:00:11;;;;;;;;;;;;;;;22.07;18.46;98093.44;5079214;28;1909;-73
2022/01/15 11:02:37;;;;;;;;;;;;;;;21.82;18.96;98096.94;5079176;28;888;-73
2022/01/15 11:05:03;;;;;;;;;;;;;;;21.75;18.85;98099.94;5111928;28;1186;-73
2022/01/15 11:07:28;;;;;;;;;;;;;;;21.76;18.74;98100.72;5079340;28;851;-73
2022/01/15 11:09:54;;;;;;;;;;;;;;;22.12;18.57;98097.78;5084838;28;881;-72
2022/01/15 11:12:20;;;;;;;;;;;;;;;22.36;18.17;98089.84;5078973;28;947;-72
2022/01/15 11:14:45;;;;;;;;;;;;;;;22.07;18.62;98086.97;5084069;28;1201;-72
2022/01/15 11:17:11;;;;;;;;;;;;;;;22.40;18.05;98075.56;5078753;28;1064;-73
2022/01/15 11:19:36;;;;;;;;;;;;;;;22.30;18.17;98089.59;5078996;28;1910;-72
2022/01/15 11:22:02;;;;;;;;;;;;;;;22.24;18.03;98085.72;5078555;28;1057;-72
2022/01/15 11:24:28;;;;;;;;;;;;;;;22.24;18.17;98094.22;5078447;28;907;-73
2022/01/15 11:26:58;;;;;;;;;;;;;;;22.10;18.29;98086.09;5079179;28;986;-73
2022/01/15 11:29:24;;;;;;;;;;;;;;;21.71;18.79;98087.94;5059776;28;1084;-73
2022/01/15 11:31:53;;;;;;;;;;;;;;;21.76;18.61;98078.06;5079050;28;940;-72
2022/01/15 11:34:21;;;;;;;;;;;;;;;22.30;17.98;98088.81;5055632;28;1031;-73
2022/01/15 11:36:47;;;;;;;;;;;;;;;21.96;18.31;98092.13;5056202;28;1133;-73
2022/01/15 11:39:12;;;;;;;;;;;;;;;22.14;18.26;98075.47;5055834;28;1009;-72
2022/01/15 11:41:42;;;;;;;;;;;;;;;22.02;18.00;98081.84;5055918;28;1905;-73
2022/01/15 11:44:08;;;;;;;;;;;;;;;22.39;17.76;98085.34;5055974;28;1045;-73
2022/01/15 11:46:49;;;;;;;;;;;;;;;22.40;17.89;98084.09;5055880;28;1098;-72
2022/01/15 11:49:23;;;;;;;;;;;;;;;22.24;17.70;98077.22;5039481;28;1000;-73
2022/01/15 11:51:52;;;;;;;;;;;;;;;22.36;17.83;98076.47;5056059;28;953;-72
2022/01/15 11:54:17;;;;;;;;;;;;;;;22.11;17.84;98070.69;5055356;28;993;-72
2022/01/15 11:56:43;;;;;;;;;;;;;;;21.93;18.31;98090.19;5015911;28;958;-73
2022/01/15 11:59:27;;;;;;;;;;;;;;;22.31;17.54;98077.00;5016021;28;1124;-72
2022/01/15 12:01:53;;;;;;;;;;;;;;;22.09;18.02;98079.63;5015875;28;1027;-73
2022/01/15 12:04:25;;;;;;;;;;;;;;;22.08;18.22;98089.38;5015830;28;1078;-73
2022/01/15 12:07:05;;;;;;;;;;;;;;;22.39;17.70;98091.78;5015897;28;971;-73
2022/01/15 12:09:30;;;;;;;;;;;;;;;21.99;17.98;98088.41;5015309;28;1401;-72
2022/01/15 12:11:56;;;;;;;;;;;;;;;22.05;17.82;98101.59;5038366;28;1205;-73
2022/01/15 12:14:40;;;;;;;;;;;;;;;22.16;18.18;98090.00;5054649;28;1284;-73
2022/01/15 12:17:24;;;;;;;;;;;;;;;22.53;17.67;98096.25;5055272;28;1201;-72
2022/01/15 12:19:49;;;;;;;;;;;;;;;22.24;17.97;98080.06;5054492;28;1961;-73
2022/01/15 12:22:35;;;;;;;;;;;;;;;22.38;17.71;98098.69;5055005;28;1279;-73
2022/01/15 12:25:01;;;;;;;;;;;;;;;22.59;17.61;98100.13;5054865;28;1283;-74
2022/01/15 12:27:27;;;;;;;;;;;;;;;22.55;17.53;98093.78;5055526;28;964;-72
2022/01/15 12:30:27;;;;;;;;;;;;;;;22.61;17.65;98101.28;5038605;28;950;-73
2022/01/15 12:32:53;;;;;;;;;;;;;;;22.64;17.78;98096.75;5034828;28;1057;-72
2022/01/15 12:35:22;;;;;;;;;;;;;;;22.42;17.90;98095.75;5034183;28;1022;-73
2022/01/15 12:38:07;;;;;;;;;;;;;;;22.45;17.80;98098.50;5035089;28;968;-74
2022/01/15 12:40:35;;;;;;;;;;;;;;;22.40;17.96;98099.06;5034813;28;1898;-73
2022/01/15 12:43:02;;;;;;;;;;;;;;;22.39;17.81;98091.00;5035081;28;1065;-73
2022/01/15 12:45:27;;;;;;;;;;;;;;;22.39;17.67;98091.78;5034908;28;1080;-72
2022/01/15 12:47:54;;;;;;;;;;;;;;;22.23;18.08;98086.97;5034849;28;1014;-72
2022/01/15 12:50:19;;;;;;;;;;;;;;;22.37;18.00;98094.25;5018237;28;1094;-73
2022/01/15 12:52:44;;;;;;;;;;;;;;;22.28;17.92;98097.75;5035019;28;1101;-72
2022/01/15 12:55:10;;;;;;;;;;;;;;;22.40;17.81;98095.41;5034359;28;982;-73
2022/01/15 12:57:42;;;;;;;;;;;;;;;22.16;18.03;98095.66;5034575;28;1293;-72
2022/01/15 13:00:18;;;;;;;;;;;;;;;22.22;18.27;98093.06;5034184;28;1906;-72
2022/01/15 13:02:44;;;;;;;;;;;;;;;22.51;17.66;98098.75;5034488;28;1050;-73
2022/01/15 13:05:10;;;;;;;;;;;;;;;22.65;17.75;98092.66;5035042;28;969;-73
2022/01/15 13:07:55;;;;;;;;;;;;;;;22.28;18.12;98097.75;5053620;28;984;-72
2022/01/15 13:10:29;;;;;;;;;;;;;;;22.09;18.31;98101.50;5056827;28;903;-73
2022/01/15 13:12:55;;;;;;;;;;;;;;;22.06;18.38;98096.72;5056624;28;926;-72
2022/01/15 13:15:21;;;;;;;;;;;;;;;22.44;17.82;98087.63;5056527;28;881;-72
2022/01/15 13:17:46;;;;;;;;;;;;;;;22.54;18.07;98095.03;5094313;28;980;-73
2022/01/15 13:20:44;;;;;;;;;;;;;;;22.26;18.24;98094.56;5094361;28;1902;-72
2022/01/15 13:23:09;;;;;;;;;;;;;;;22.51;17.87;98093.88;5033785;28;1061;-73